createdAt,value
2023-02-19T05:02:38.569Z,99565.69
2023-02-19T05:06:41.103Z,99574.84
2023-02-19T05:10:43.614Z,99572.13
2023-02-19T05:14:46.137Z,99567.34
2023-02-19T05:18:50.052Z,99574.41
2023-02-19T05:22:52.601Z,99574.63
2023-02-19T05:26:55.127Z,99575.25
2023-02-19T05:30:58.231Z,99588.31
2023-02-19T05:35:02.147Z,99602.00
2023-02-19T05:39:06.130Z,99601.75
2023-02-19T05:43:09.150Z,99613.72
2023-02-19T05:47:11.743Z,99605.03
2023-02-19T05:51:17.618Z,99614.25
2023-02-19T05:55:20.237Z,99621.78
2023-02-19T05:59:25.443Z,99627.38
2023-02-19T06:03:27.973Z,99636.81
2023-02-19T06:07:33.088Z,99620.66
2023-02-19T06:11:36.262Z,99619.56
2023-02-19T06:15:39.059Z,99629.84
2023-02-19T06:19:41.623Z,99616.25
2023-02-19T06:23:46.026Z,99649.22
2023-02-19T06:27:48.569Z,99683.59
2023-02-19T06:31:51.237Z,99694.31
2023-02-19T06:35:53.981Z,99702.31
2023-02-19T06:39:57.861Z,99697.13
2023-02-19T06:44:01.070Z,99733.59
2023-02-19T06:48:03.606Z,99750.75
2023-02-19T06:52:06.111Z,99749.28
2023-02-19T06:56:24.692Z,99764.69
2023-02-19T07:00:27.378Z,99772.44
2023-02-19T07:04:29.934Z,99796.53
2023-02-19T07:08:32.490Z,99808.28
2023-02-19T07:12:36.333Z,99830.41
2023-02-19T07:16:39.345Z,99818.66
2023-02-19T07:20:41.904Z,99829.19
2023-02-19T07:24:46.862Z,99843.13
2023-02-19T07:28:52.501Z,99853.81
2023-02-19T07:32:55.040Z,99867.88
2023-02-19T07:36:57.544Z,99885.78
2023-02-19T07:41:01.984Z,99899.81
2023-02-19T07:45:06.292Z,99904.53
2023-02-19T07:49:08.893Z,99917.44
2023-02-19T07:53:11.436Z,99933.44
2023-02-19T07:57:14.435Z,99954.59
2023-02-19T08:01:40.085Z,99960.31
2023-02-19T08:05:43.763Z,99978.53
2023-02-19T08:10:06.262Z,99986.44
2023-02-19T08:14:08.797Z,100007.09
2023-02-19T08:18:13.868Z,99992.91
2023-02-19T08:22:16.840Z,100004.94
2023-02-19T08:26:19.712Z,100018.31
2023-02-19T08:30:22.703Z,100015.22
2023-02-19T08:34:26.651Z,100035.47
2023-02-19T08:38:29.175Z,100030.63
2023-02-19T08:42:31.691Z,100050.19
2023-02-19T08:46:34.621Z,100063.56
2023-02-19T08:50:39.189Z,100074.22
2023-02-19T08:54:41.736Z,100070.81
2023-02-19T08:58:44.592Z,100082.00
2023-02-19T09:02:47.084Z,100092.06
2023-02-19T09:06:51.143Z,100096.94
2023-02-19T09:11:00.548Z,100092.94
2023-02-19T09:15:03.057Z,100101.63
2023-02-19T09:19:05.819Z,100120.53
2023-02-19T09:23:09.678Z,100138.44
2023-02-19T09:27:16.588Z,100132.22
2023-02-19T09:31:19.223Z,100141.94
2023-02-19T09:35:21.801Z,100134.72
2023-02-19T09:39:25.622Z,100141.28
2023-02-19T09:43:29.666Z,100150.44
2023-02-19T09:47:34.941Z,100152.22
2023-02-19T09:51:41.069Z,100159.47
2023-02-19T09:55:45.782Z,100155.84
2023-02-19T09:59:52.071Z,100158.91
2023-02-19T10:03:54.634Z,100170.06
2023-02-19T10:07:58.972Z,100202.06
2023-02-19T10:12:03.150Z,100208.31
2023-02-19T10:16:09.879Z,100223.91
2023-02-19T10:20:15.826Z,100227.44
2023-02-19T10:24:22.396Z,100219.22
2023-02-19T10:28:30.229Z,100227.66
2023-02-19T10:32:32.794Z,100255.91
2023-02-19T10:36:39.484Z,100260.78
2023-02-19T10:40:45.817Z,100275.22
2023-02-19T10:44:55.519Z,100267.22
2023-02-19T10:49:00.450Z,100286.16
2023-02-19T10:53:03.018Z,100298.56
2023-02-19T10:57:29.786Z,100298.28
2023-02-19T11:01:33.746Z,100297.97
2023-02-19T11:05:39.167Z,100313.22
2023-02-19T11:09:45.377Z,100318.25
2023-02-19T11:13:48.629Z,100315.09
2023-02-19T11:18:04.191Z,100321.47
2023-02-19T11:22:21.314Z,100320.94
2023-02-19T11:26:27.672Z,100312.59
2023-02-19T11:30:36.724Z,100304.97
2023-02-19T11:34:40.660Z,100316.06
2023-02-19T11:38:43.563Z,100313.53
2023-02-19T11:42:54.383Z,100323.13
2023-02-19T11:47:25.278Z,100317.78
2023-02-19T11:51:52.189Z,100331.84
2023-02-19T11:56:08.992Z,100324.47
2023-02-19T12:00:24.803Z,100333.19
2023-02-19T12:04:55.569Z,100332.53
2023-02-19T12:09:21.728Z,100337.25
2023-02-19T12:13:30.893Z,100328.84
2023-02-19T12:17:56.463Z,100338.75
2023-02-19T12:22:12.797Z,100337.00
2023-02-19T12:26:24.808Z,100330.28
2023-02-19T12:30:48.095Z,100333.00
2023-02-19T12:35:28.041Z,100338.38
2023-02-19T12:39:40.207Z,100332.50
2023-02-19T12:43:52.771Z,100339.88
2023-02-19T12:48:02.486Z,100350.81
2023-02-19T12:52:11.046Z,100360.06
2023-02-19T12:56:20.121Z,100358.38
2023-02-19T13:00:33.080Z,100348.75
2023-02-19T13:04:44.293Z,100363.91
2023-02-19T13:09:05.459Z,100378.53
2023-02-19T13:13:16.092Z,100387.41
2023-02-19T13:17:25.048Z,100399.06
2023-02-19T13:21:48.882Z,100406.88
2023-02-19T13:26:02.650Z,100401.41
2023-02-19T13:30:27.570Z,100399.19
2023-02-19T13:34:47.760Z,100394.31
2023-02-19T13:38:51.143Z,100390.28
2023-02-19T13:42:56.548Z,100405.75
2023-02-19T13:47:00.496Z,100415.00
2023-02-19T13:51:36.338Z,100407.09
2023-02-19T13:55:53.972Z,100409.28
2023-02-19T13:59:57.984Z,100414.31
2023-02-19T14:04:17.229Z,100416.50
2023-02-19T14:08:49.172Z,100403.22
2023-02-19T14:12:51.730Z,100409.44
2023-02-19T14:17:05.679Z,100417.00
2023-02-19T14:21:16.907Z,100417.19
2023-02-19T14:25:30.187Z,100406.44
2023-02-19T14:29:32.817Z,100397.69
2023-02-19T14:33:38.217Z,100399.53
2023-02-19T14:37:40.861Z,100400.38
2023-02-19T14:41:47.161Z,100407.06
2023-02-19T14:45:53.508Z,100414.81
2023-02-19T14:50:01.146Z,100410.94
2023-02-19T14:54:15.957Z,100412.13
2023-02-19T14:58:24.173Z,100414.81
2023-02-19T15:02:28.049Z,100434.16
2023-02-19T15:06:32.412Z,100447.06
2023-02-19T15:10:37.102Z,100437.66
2023-02-19T15:14:41.408Z,100432.44
2023-02-19T15:18:46.429Z,100430.59
2023-02-19T15:22:49.182Z,100438.81
2023-02-19T15:26:54.114Z,100438.16
2023-02-19T15:31:14.789Z,100426.84
2023-02-19T15:35:24.250Z,100417.75
2023-02-19T15:39:33.468Z,100417.91
2023-02-19T15:43:44.270Z,100421.88
2023-02-19T15:47:52.141Z,100426.38
2023-02-19T15:51:59.262Z,100423.72
2023-02-19T15:56:08.020Z,100426.34
2023-02-19T16:00:16.472Z,100430.31
2023-02-19T16:04:20.962Z,100425.53
2023-02-19T16:08:30.997Z,100429.78
2023-02-19T16:12:33.746Z,100422.88
2023-02-19T16:16:39.388Z,100427.41
2023-02-19T16:20:48.433Z,100424.94
2023-02-19T16:24:54.141Z,100426.25
2023-02-19T16:28:56.753Z,100432.22
2023-02-19T16:33:36.345Z,100439.84
2023-02-19T16:37:43.519Z,100446.91
2023-02-19T16:42:15.380Z,100447.94
2023-02-19T16:46:17.962Z,100456.13
2023-02-19T16:50:23.680Z,100457.97
2023-02-19T16:54:27.558Z,100485.56
2023-02-19T16:58:30.110Z,100475.75
2023-02-19T17:02:33.838Z,100484.59
2023-02-19T17:06:37.719Z,100483.03
2023-02-19T17:10:41.591Z,100499.09
2023-02-19T17:14:44.165Z,100507.94
2023-02-19T17:18:46.704Z,100511.47
2023-02-19T17:22:49.221Z,100504.38
2023-02-19T17:26:53.064Z,100519.06
2023-02-19T17:30:55.580Z,100529.13
2023-02-19T17:34:58.120Z,100521.09
2023-02-19T17:39:01.909Z,100525.75
2023-02-19T17:43:06.698Z,100524.00
2023-02-19T17:47:09.278Z,100526.84
2023-02-19T17:51:12.383Z,100527.75
2023-02-19T17:55:18.372Z,100531.47
2023-02-19T17:59:24.380Z,100524.78
2023-02-19T18:03:26.925Z,100527.34
2023-02-19T18:07:29.476Z,100527.75
2023-02-19T18:11:32.023Z,100526.13
2023-02-19T18:15:35.908Z,100518.28
2023-02-19T18:19:38.434Z,100501.09
2023-02-19T18:23:41.007Z,100519.28
2023-02-19T18:27:43.806Z,100515.94
2023-02-19T18:31:47.734Z,100523.38
2023-02-19T18:35:50.385Z,100530.97
2023-02-19T18:39:53.699Z,100529.38
2023-02-19T18:43:56.191Z,100532.91
2023-02-19T18:48:00.084Z,100533.25
2023-02-19T18:52:02.633Z,100532.34
2023-02-19T18:56:08.899Z,100537.81
2023-02-19T19:00:16.748Z,100536.97
2023-02-19T19:04:20.713Z,100543.16
2023-02-19T19:08:23.262Z,100541.19
2023-02-19T19:12:25.815Z,100538.84
2023-02-19T19:16:29.988Z,100543.38
2023-02-19T19:20:33.979Z,100546.44
2023-02-19T19:24:36.468Z,100549.16
2023-02-19T19:28:40.629Z,100541.72
2023-02-19T19:32:43.266Z,100545.91
2023-02-19T19:36:47.302Z,100550.69
2023-02-19T19:40:49.804Z,100554.19
2023-02-19T19:44:52.624Z,100552.97
2023-02-19T19:48:55.154Z,100547.13
2023-02-19T19:52:59.006Z,100556.81
2023-02-19T19:57:01.547Z,100559.06
2023-02-19T20:01:05.916Z,100563.75
2023-02-19T20:05:08.942Z,100565.03
2023-02-19T20:09:12.984Z,100557.78
2023-02-19T20:13:16.988Z,100558.09
2023-02-19T20:17:19.689Z,100560.75
2023-02-19T20:21:22.219Z,100565.06
2023-02-19T20:25:26.269Z,100571.13
2023-02-19T20:29:30.152Z,100575.41
2023-02-19T20:33:33.263Z,100574.81
2023-02-19T20:37:38.238Z,100569.25
2023-02-19T20:41:50.308Z,100577.66
2023-02-19T20:45:55.256Z,100563.59
2023-02-19T20:49:57.836Z,100559.16
2023-02-19T20:54:00.371Z,100556.19
2023-02-19T20:58:04.488Z,100546.81
2023-02-19T21:02:09.721Z,100557.69
2023-02-19T21:06:12.690Z,100548.50
2023-02-19T21:10:15.353Z,100558.47
2023-02-19T21:14:19.311Z,100577.28
2023-02-19T21:18:21.874Z,100573.78
2023-02-19T21:22:24.398Z,100572.44
2023-02-19T21:26:34.982Z,100578.66
2023-02-19T21:30:38.893Z,100570.16
2023-02-19T21:34:41.457Z,100566.38
2023-02-19T21:38:43.970Z,100580.31
2023-02-19T21:42:46.549Z,100571.41
2023-02-19T21:46:50.417Z,100569.44
2023-02-19T21:50:52.985Z,100566.59
2023-02-19T21:54:55.511Z,100565.75
2023-02-19T21:58:58.557Z,100553.19
